Stellar Pacific — V2QR7 — position and weather

sailwx.info

Track history (hours):
 
Tides and Currents Weather Stations Pressure Air Temp Water Temp Dewpoint Dewpoint Depression Visibility Wind Speed Wind Dir Waves Ship Positions

Stellar Pacific

Last reported at 2017-Nov-16 16:51 UTC. Time now 2017-Nov-19 12:22 UTC.
Position N 35°59' W 005°14'.

Length 135 m; draft 8.5 m.

Type: Cargo ship. MMSI: 304918000.

Date/timePositionNaut miles runAvg speedWind from/ knotsBaromVisibWave heightAir tempDewpointWater temp
2017-Nov-16 16:51N 35°59' W 005°14'412.4
2017-Nov-16 16:30N 35°59' W 005°19'612.5
2017-Nov-16 16:00N 35°57' W 005°27'23510.7
2017-Nov-15 17:59N 37°42' W 009°50'612.4
2017-Nov-15 17:30N 37°48' W 009°51'1012.4
2017-Nov-15 16:41N 37°58' W 009°54'312.7
2017-Nov-15 16:28N 38°00' W 009°55'612.3
2017-Nov-15 16:00N 38°06' W 009°56'612.0
2017-Nov-15 15:30N 38°12' W 009°58'612.4
2017-Nov-15 15:00N 38°18' W 009°59'612.1
2017-Nov-15 14:30N 38°24' W 010°01'611.9
2017-Nov-15 14:00N 38°30' W 010°02'611.6
2017-Nov-15 13:30N 38°35' W 010°04'611.8
2017-Nov-15 13:00N 38°41' W 010°06'611.8
2017-Nov-15 12:30N 38°47' W 010°06'611.6
2017-Nov-15 12:00N 38°53' W 010°06'611.7
2017-Nov-15 11:29N 38°59' W 010°06'511.6
2017-Nov-15 11:00N 39°04' W 010°06'612.1
2017-Nov-15 10:30N 39°10' W 010°06'612.0
2017-Nov-15 10:00N 39°16' W 010°06'612.3
2017-Nov-15 09:30N 39°23' W 010°06'612.1
2017-Nov-15 09:00N 39°29' W 010°06'27710.1
2017-Nov-14 05:40N 43°49' W 007°60'312.5
2017-Nov-14 05:25N 43°50' W 007°56'712.4
2017-Nov-14 04:54N 43°50' W 007°47'512.5
2017-Nov-14 04:30N 43°50' W 007°40'612.2
2017-Nov-14 04:00N 43°49' W 007°31'612.0
2017-Nov-14 03:30N 43°48' W 007°23'611.8
2017-Nov-14 03:00N 43°47' W 007°15'  
2017-Nov-07 14:45N 43°37' W 005°58'1 3.3
2017-Nov-07 14:30N 43°38' W 005°57'6 8.8
2017-Nov-07 13:52N 43°43' W 005°54'410.2
2017-Nov-07 13:27N 43°47' W 005°52'511.0
2017-Nov-07 13:00N 43°51' W 005°49'  
Track history (hours):
 
Tides and Currents Weather Stations Pressure Air Temp Water Temp Dewpoint Dewpoint Depression Visibility Wind Speed Wind Dir Waves Ship Positions

Stellar Pacific

Last reported at 2017-Nov-16 16:51 UTC. Time now 2017-Nov-19 12:22 UTC.
Position N 35°59' W 005°14'.

Length 135 m; draft 8.5 m.

Type: Cargo ship. MMSI: 304918000.

Date/timePositionNaut miles runAvg speedWind from/ knotsBaromVisibWave heightAir tempDewpointWater temp
2017-Nov-16 16:51N 35°59' W 005°14'412.4
2017-Nov-16 16:30N 35°59' W 005°19'612.5
2017-Nov-16 16:00N 35°57' W 005°27'23510.7
2017-Nov-15 17:59N 37°42' W 009°50'612.4
2017-Nov-15 17:30N 37°48' W 009°51'1012.4
2017-Nov-15 16:41N 37°58' W 009°54'312.7
2017-Nov-15 16:28N 38°00' W 009°55'612.3
2017-Nov-15 16:00N 38°06' W 009°56'612.0
2017-Nov-15 15:30N 38°12' W 009°58'612.4
2017-Nov-15 15:00N 38°18' W 009°59'612.1
2017-Nov-15 14:30N 38°24' W 010°01'611.9
2017-Nov-15 14:00N 38°30' W 010°02'611.6
2017-Nov-15 13:30N 38°35' W 010°04'611.8
2017-Nov-15 13:00N 38°41' W 010°06'611.8
2017-Nov-15 12:30N 38°47' W 010°06'611.6
2017-Nov-15 12:00N 38°53' W 010°06'611.7
2017-Nov-15 11:29N 38°59' W 010°06'511.6
2017-Nov-15 11:00N 39°04' W 010°06'612.1
2017-Nov-15 10:30N 39°10' W 010°06'612.0
2017-Nov-15 10:00N 39°16' W 010°06'612.3
2017-Nov-15 09:30N 39°23' W 010°06'612.1
2017-Nov-15 09:00N 39°29' W 010°06'27710.1
2017-Nov-14 05:40N 43°49' W 007°60'312.5
2017-Nov-14 05:25N 43°50' W 007°56'712.4
2017-Nov-14 04:54N 43°50' W 007°47'512.5
2017-Nov-14 04:30N 43°50' W 007°40'612.2
2017-Nov-14 04:00N 43°49' W 007°31'612.0
2017-Nov-14 03:30N 43°48' W 007°23'611.8
2017-Nov-14 03:00N 43°47' W 007°15'  
2017-Nov-07 14:45N 43°37' W 005°58'1 3.3
2017-Nov-07 14:30N 43°38' W 005°57'6 8.8
2017-Nov-07 13:52N 43°43' W 005°54'410.2
2017-Nov-07 13:27N 43°47' W 005°52'511.0
2017-Nov-07 13:00N 43°51' W 005°49'  

Dump ship's entire track history